Observations for VILLAFRANCA CV MIL, Italy (LIPX)

LIPX 260450Z 34003KT CAVOK 21/18 Q1017  
LIPX 260420Z VRB04KT CAVOK 21/18 Q1017  
LIPX 260350Z 31003KT CAVOK 21/18 Q1017  
LIPX 260320Z 27003KT 9999 FEW090 21/18 Q1017
LIPX 260250Z VRB01KT 9999 SCT090 21/19 Q1017
LIPX 260220Z VRB01KT 9999 SCT090 22/19 Q1017
LIPX 260150Z VRB01KT 9999 SCT090 22/18 Q1017
LIPX 260120Z VRB01KT 9999 SCT080 21/19 Q1017
LIPX 260050Z 29004KT 9999 SCT090 22/19 Q1017
LIPX 260020Z 28003KT 9999 SCT080 23/18 Q1017
LIPX 252350Z VRB02KT 9999 SCT080 23/18 Q1017
LIPX 252320Z VRB01KT 9999 SCT080 23/19 Q1018
LIPX 252250Z VRB02KT 9999 SCT080 23/19 Q1018
LIPX 252220Z VRB02KT 9999 SCT080 24/19 Q1018
LIPX 252150Z 36003KT 320V040 9999 SCT080 24/18 Q1018
LIPX 252120Z 31005KT 9999 SCT080 24/18 Q1018
LIPX 252050Z 32004KT 9999 SCT080 24/19 Q1018
LIPX 252020Z 32003KT 9999 SCT080 24/19 Q1018
LIPX 251950Z 31004KT 9999 SCT080 24/19 Q1018
LIPX 251920Z 10003KT 9999 SCT080 26/17 Q1017
LIPX 251850Z 08003KT 9999 SCT080 27/17 Q1017
LIPX 251820Z 08003KT 9999 FEW080 28/17 Q1017
LIPX 251750Z 15002KT CAVOK 29/17 Q1017  
LIPX 251720Z 16003KT 120V200 CAVOK 30/17 Q1016  
LIPX 251650Z 17003KT 110V220 CAVOK 30/17 Q1016  
LIPX 251620Z 17004KT 120V220 CAVOK 30/17 Q1016  
LIPX 251550Z 19004KT 120V260 CAVOK 31/17 Q1016  
LIPX 251520Z 17003KT 120V220 CAVOK 31/16 Q1016  
LIPX 251450Z VRB03KT CAVOK 31/16 Q1016  
LIPX 251420Z VRB03KT CAVOK 31/17 Q1016  
LIPX 251350Z VRB03KT CAVOK 30/16 Q1016  
LIPX 251320Z 12005KT 040V190 CAVOK 30/17 Q1017  
LIPX 251250Z 13005KT 050V220 CAVOK 30/17 Q1017  
LIPX 251220Z VRB04KT CAVOK 30/16 Q1017  
LIPX 251150Z VRB04KT CAVOK 29/17 Q1018  
LIPX 251120Z 10004KT 030V190 CAVOK 29/17 Q1018  
LIPX 251050Z VRB04KT CAVOK 28/17 Q1018  
LIPX 251020Z 16003KT 100V210 CAVOK 29/18 Q1018  
LIPX 250950Z VRB03KT CAVOK 28/17 Q1018  
LIPX 250920Z VRB02KT CAVOK 28/18 Q1018  
LIPX 250850Z VRB02KT CAVOK 27/17 Q1018  
LIPX 250820Z VRB02KT CAVOK 27/18 Q1018  
LIPX 250750Z VRB01KT CAVOK 25/18 Q1018  
LIPX 250720Z VRB02KT CAVOK 24/18 Q1018  
LIPX 250650Z VRB02KT CAVOK 23/18 Q1018  
LIPX 250620Z VRB01KT CAVOK 22/18 Q1018  
LIPX 250550Z 13002KT CAVOK 20/18 Q1018  
LIPX 250520Z VRB01KT CAVOK 19/18 Q1017  
LIPX 250450Z 23005KT 170V300 CAVOK 19/17 Q1017